createdAt,value
2023-04-15T00:00:10.365Z,99568.13
2023-04-15T00:03:17.070Z,99574.53
2023-04-15T00:06:20.750Z,99569.06
2023-04-15T00:09:24.296Z,99570.94
2023-04-15T00:12:27.979Z,99576.09
2023-04-15T00:15:30.643Z,99581.41
2023-04-15T00:18:33.244Z,99576.78
2023-04-15T00:21:36.564Z,99581.47
2023-04-15T00:24:39.796Z,99576.41
2023-04-15T00:27:42.461Z,99576.38
2023-04-15T00:30:45.932Z,99574.38
2023-04-15T00:33:48.857Z,99573.78
2023-04-15T00:36:52.614Z,99571.81
2023-04-15T00:39:56.567Z,99570.66
2023-04-15T00:43:00.128Z,99571.88
2023-04-15T00:46:05.211Z,99569.09
2023-04-15T00:49:08.938Z,99570.41
2023-04-15T00:52:11.963Z,99573.47
2023-04-15T00:55:16.420Z,99564.81
2023-04-15T00:58:19.462Z,99559.72
2023-04-15T01:01:22.751Z,99553.06
2023-04-15T01:04:26.704Z,99566.06
2023-04-15T01:07:30.889Z,99554.22
2023-04-15T01:10:33.710Z,99550.41
2023-04-15T01:13:36.916Z,99544.91
2023-04-15T01:16:39.973Z,99546.50
2023-04-15T01:19:43.388Z,99547.38
2023-04-15T01:22:47.078Z,99552.22
2023-04-15T01:25:51.482Z,99548.13
2023-04-15T01:28:54.925Z,99547.50
2023-04-15T01:31:57.786Z,99560.63
2023-04-15T01:35:02.291Z,99562.38
2023-04-15T01:38:09.845Z,99558.41
2023-04-15T01:41:16.530Z,99550.66
2023-04-15T01:44:20.323Z,99565.56
2023-04-15T01:47:23.314Z,99559.47
2023-04-15T01:50:27.145Z,99563.69
2023-04-15T01:53:31.299Z,99559.38
2023-04-15T01:56:33.858Z,99564.53
2023-04-15T01:59:37.228Z,99562.41
2023-04-15T02:02:40.385Z,99567.28
2023-04-15T02:05:43.732Z,99570.16
2023-04-15T02:08:47.527Z,99567.19
2023-04-15T02:11:51.776Z,99570.53
2023-04-15T02:14:54.452Z,99568.91
2023-04-15T02:18:00.954Z,99565.19
2023-04-15T02:21:06.046Z,99564.69
2023-04-15T02:24:09.102Z,99566.19
2023-04-15T02:27:15.598Z,99560.88
2023-04-15T02:30:18.792Z,99555.94
2023-04-15T02:33:21.871Z,99563.72
2023-04-15T02:36:24.678Z,99572.56
2023-04-15T02:39:27.496Z,99579.47
2023-04-15T02:42:31.999Z,99569.31
2023-04-15T02:45:37.791Z,99574.13
2023-04-15T02:48:41.903Z,99581.56
2023-04-15T02:51:49.499Z,99570.47
2023-04-15T02:54:52.118Z,99572.56
2023-04-15T02:57:54.646Z,99573.59
2023-04-15T03:00:57.694Z,99567.59
2023-04-15T03:04:00.581Z,99566.00
2023-04-15T03:07:03.357Z,99567.75
2023-04-15T03:10:07.380Z,99571.28
2023-04-15T03:13:10.322Z,99560.78
2023-04-15T03:16:14.673Z,99563.91
2023-04-15T03:19:18.412Z,99558.00
2023-04-15T03:22:21.376Z,99563.72
2023-04-15T03:25:24.325Z,99562.19
2023-04-15T03:28:28.670Z,99565.50
2023-04-15T03:31:32.573Z,99559.56
2023-04-15T03:34:36.196Z,99552.22
2023-04-15T03:37:38.973Z,99561.09
2023-04-15T03:40:42.258Z,99566.00
2023-04-15T03:43:45.507Z,99574.78
2023-04-15T03:46:48.533Z,99580.81
2023-04-15T03:49:52.209Z,99564.97
2023-04-15T03:52:54.904Z,99577.22
2023-04-15T03:55:57.461Z,99567.19
2023-04-15T03:59:01.452Z,99562.50
2023-04-15T04:02:04.720Z,99558.59
2023-04-15T04:05:08.235Z,99556.19
2023-04-15T04:08:13.887Z,99557.09
2023-04-15T04:11:16.504Z,99557.00
2023-04-15T04:14:19.589Z,99561.22
2023-04-15T04:17:22.280Z,99561.25
2023-04-15T04:20:25.136Z,99559.84
2023-04-15T04:23:28.658Z,99555.75
2023-04-15T04:26:31.305Z,99557.06
2023-04-15T04:29:38.549Z,99553.88
2023-04-15T04:32:41.141Z,99563.25
2023-04-15T04:35:43.761Z,99559.28
2023-04-15T04:38:46.664Z,99562.19
2023-04-15T04:41:52.267Z,99556.38
2023-04-15T04:44:54.953Z,99557.28
2023-04-15T04:47:58.238Z,99560.78
2023-04-15T04:51:01.073Z,99554.06
2023-04-15T04:54:04.369Z,99558.69
2023-04-15T04:57:08.122Z,99554.00
2023-04-15T05:00:11.224Z,99564.38
2023-04-15T05:03:14.526Z,99557.47
2023-04-15T05:06:17.168Z,99556.78
2023-04-15T05:09:20.178Z,99560.47
2023-04-15T05:12:22.764Z,99559.94
2023-04-15T05:15:25.477Z,99567.44
2023-04-15T05:18:28.733Z,99571.25
2023-04-15T05:21:31.853Z,99557.59
2023-04-15T05:24:34.656Z,99560.28
2023-04-15T05:27:37.303Z,99564.41
2023-04-15T05:30:40.805Z,99561.28
2023-04-15T05:33:44.383Z,99569.03
2023-04-15T05:36:47.752Z,99560.78
2023-04-15T05:39:50.405Z,99572.22
2023-04-15T05:42:53.065Z,99567.84
2023-04-15T05:45:57.013Z,99567.28
2023-04-15T05:49:00.068Z,99569.19
2023-04-15T05:52:04.145Z,99577.50
2023-04-15T05:55:07.447Z,99572.94
2023-04-15T05:58:09.951Z,99575.22
2023-04-15T06:01:12.530Z,99591.44
2023-04-15T06:04:15.552Z,99581.66
2023-04-15T06:07:18.796Z,99590.19
2023-04-15T06:10:21.562Z,99589.50
2023-04-15T06:13:24.147Z,99592.91
2023-04-15T06:16:27.403Z,99594.69
2023-04-15T06:19:30.390Z,99593.53
2023-04-15T06:22:33.222Z,99608.84
2023-04-15T06:25:35.869Z,99603.91
2023-04-15T06:28:38.534Z,99611.06
2023-04-15T06:31:50.281Z,99616.88
2023-04-15T06:34:52.886Z,99610.84
2023-04-15T06:37:55.408Z,99612.69
2023-04-15T06:40:58.982Z,99618.75
2023-04-15T06:44:02.664Z,99620.34
2023-04-15T06:47:05.410Z,99627.28
2023-04-15T06:50:09.383Z,99620.78
2023-04-15T06:53:12.402Z,99622.06
2023-04-15T06:56:15.838Z,99616.16
2023-04-15T06:59:19.029Z,99625.75
2023-04-15T07:02:22.114Z,99624.78
2023-04-15T07:05:25.475Z,99619.94
2023-04-15T07:08:28.073Z,99621.50
2023-04-15T07:11:31.423Z,99625.97
2023-04-15T07:14:33.934Z,99630.66
2023-04-15T07:17:37.186Z,99629.19
2023-04-15T07:20:40.259Z,99631.88
2023-04-15T07:23:44.089Z,99621.06
2023-04-15T07:26:47.304Z,99626.06
2023-04-15T07:29:52.080Z,99629.19
2023-04-15T07:32:55.344Z,99630.47
2023-04-15T07:35:58.221Z,99628.16
2023-04-15T07:39:03.684Z,99634.09
2023-04-15T07:42:07.453Z,99633.13
2023-04-15T07:45:11.475Z,99641.00
2023-04-15T07:48:14.074Z,99632.56
2023-04-15T07:51:17.829Z,99632.88
2023-04-15T07:54:21.574Z,99626.03
2023-04-15T07:57:24.339Z,99629.06
2023-04-15T08:00:27.077Z,99633.53
2023-04-15T08:03:30.016Z,99627.78
2023-04-15T08:06:33.274Z,99630.00
2023-04-15T08:09:36.030Z,99631.63
2023-04-15T08:12:38.672Z,99625.84
2023-04-15T08:15:41.376Z,99635.09
2023-04-15T08:18:44.392Z,99636.16
2023-04-15T08:21:47.931Z,99634.13
2023-04-15T08:24:50.579Z,99638.19
2023-04-15T08:27:57.173Z,99642.06
2023-04-15T08:31:00.006Z,99640.06
2023-04-15T08:34:03.702Z,99635.88
2023-04-15T08:37:07.101Z,99634.84
2023-04-15T08:40:10.879Z,99645.13
2023-04-15T08:43:20.974Z,99648.94
2023-04-15T08:46:24.267Z,99649.53
2023-04-15T08:49:29.118Z,99643.19
2023-04-15T08:52:32.316Z,99653.09
2023-04-15T08:55:36.855Z,99656.38
2023-04-15T08:58:40.704Z,99656.06
2023-04-15T09:01:44.174Z,99655.13
2023-04-15T09:04:47.552Z,99649.88
2023-04-15T09:07:53.461Z,99646.75
2023-04-15T09:10:56.305Z,99653.09
2023-04-15T09:13:58.905Z,99660.31
2023-04-15T09:17:03.998Z,99651.88
2023-04-15T09:20:11.547Z,99653.41
2023-04-15T09:23:15.906Z,99660.72
2023-04-15T09:26:19.591Z,99651.75
2023-04-15T09:29:25.912Z,99649.88
2023-04-15T09:32:28.633Z,99648.38
2023-04-15T09:35:31.642Z,99648.19
2023-04-15T09:38:34.297Z,99650.56
2023-04-15T09:41:36.919Z,99646.53
2023-04-15T09:44:39.647Z,99649.13
2023-04-15T09:47:42.555Z,99645.66
2023-04-15T09:50:45.306Z,99651.88
2023-04-15T09:53:54.746Z,99654.91
2023-04-15T09:57:08.687Z,99646.91
2023-04-15T10:00:11.731Z,99650.66
2023-04-15T10:03:21.631Z,99650.75
2023-04-15T10:06:28.071Z,99663.28
2023-04-15T10:09:31.859Z,99668.63
2023-04-15T10:12:37.515Z,99665.63
2023-04-15T10:15:44.774Z,99661.69
2023-04-15T10:18:56.114Z,99663.72
2023-04-15T10:21:59.688Z,99668.34
2023-04-15T10:25:04.284Z,99662.81
2023-04-15T10:28:09.046Z,99666.50
2023-04-15T10:31:13.823Z,99667.59
2023-04-15T10:34:17.603Z,99664.16
2023-04-15T10:37:35.738Z,99675.22
2023-04-15T10:40:39.568Z,99674.09
2023-04-15T10:44:08.420Z,99670.47
2023-04-15T10:47:21.737Z,99671.59
2023-04-15T10:50:28.867Z,99672.78
2023-04-15T10:53:32.117Z,99683.69
2023-04-15T10:56:34.658Z,99686.56
2023-04-15T10:59:39.351Z,99692.53
2023-04-15T11:02:44.917Z,99693.38
2023-04-15T11:05:54.297Z,99695.16
2023-04-15T11:08:59.592Z,99703.75
2023-04-15T11:12:08.386Z,99704.56
2023-04-15T11:15:32.586Z,99705.53
2023-04-15T11:18:35.321Z,99707.88
2023-04-15T11:21:38.276Z,99707.66
2023-04-15T11:24:50.590Z,99696.38
2023-04-15T11:27:57.605Z,99705.09
2023-04-15T11:31:07.424Z,99702.56
2023-04-15T11:34:10.296Z,99698.28
2023-04-15T11:37:13.084Z,99692.63
2023-04-15T11:40:17.645Z,99696.97
2023-04-15T11:43:22.821Z,99701.03
2023-04-15T11:46:32.012Z,99694.28
2023-04-15T11:49:38.420Z,99700.25
2023-04-15T11:52:41.542Z,99706.25
2023-04-15T11:55:46.382Z,99702.50
2023-04-15T11:58:54.147Z,99705.22
2023-04-15T12:01:57.354Z,99705.88
2023-04-15T12:05:08.560Z,99709.00
2023-04-15T12:08:12.288Z,99713.03
2023-04-15T12:11:16.533Z,99700.75
2023-04-15T12:14:29.908Z,99717.94
2023-04-15T12:17:50.870Z,99709.84
2023-04-15T12:20:54.738Z,99705.66
2023-04-15T12:23:58.080Z,99711.56
2023-04-15T12:27:08.536Z,99713.72
2023-04-15T12:30:11.796Z,99710.28
2023-04-15T12:33:15.396Z,99717.00
2023-04-15T12:36:18.697Z,99728.63
2023-04-15T12:39:25.391Z,99720.13
2023-04-15T12:42:28.234Z,99718.53
2023-04-15T12:45:31.749Z,99719.50
2023-04-15T12:48:34.761Z,99717.44
2023-04-15T12:51:37.715Z,99729.81
2023-04-15T12:54:40.586Z,99723.31
2023-04-15T12:57:43.746Z,99721.00
2023-04-15T13:00:47.080Z,99739.38
2023-04-15T13:03:51.255Z,99740.97
2023-04-15T13:06:54.570Z,99742.53
2023-04-15T13:09:57.775Z,99725.81
2023-04-15T13:13:00.414Z,99735.41
2023-04-15T13:16:03.231Z,99744.78
2023-04-15T13:19:06.535Z,99740.78
2023-04-15T13:22:09.348Z,99747.84
2023-04-15T13:25:12.482Z,99736.31
2023-04-15T13:28:15.189Z,99740.81
2023-04-15T13:31:17.854Z,99738.00
2023-04-15T13:34:20.803Z,99745.88
2023-04-15T13:37:30.281Z,99743.22
2023-04-15T13:40:32.961Z,99745.00
2023-04-15T13:43:35.775Z,99752.38
2023-04-15T13:46:39.614Z,99749.84
2023-04-15T13:49:42.303Z,99750.50
2023-04-15T13:52:45.786Z,99753.28
2023-04-15T13:55:48.425Z,99755.47
2023-04-15T13:58:53.020Z,99766.59
2023-04-15T14:01:56.179Z,99762.03
2023-04-15T14:04:58.963Z,99761.41
2023-04-15T14:08:01.641Z,99768.53
2023-04-15T14:11:04.267Z,99769.75
2023-04-15T14:14:06.973Z,99778.50
2023-04-15T14:17:09.606Z,99772.47
2023-04-15T14:20:13.201Z,99772.31
2023-04-15T14:23:16.741Z,99776.53
2023-04-15T14:26:19.556Z,99775.44
2023-04-15T14:29:22.337Z,99778.34
2023-04-15T14:32:26.415Z,99789.56
2023-04-15T14:35:30.006Z,99782.78
2023-04-15T14:38:38.486Z,99783.78
2023-04-15T14:41:41.436Z,99784.16
2023-04-15T14:44:44.857Z,99782.91
2023-04-15T14:47:47.776Z,99798.13
2023-04-15T14:50:50.700Z,99793.94
2023-04-15T14:53:53.731Z,99798.00
2023-04-15T14:56:56.437Z,99793.06
2023-04-15T14:59:59.275Z,99798.38
2023-04-15T15:03:04.070Z,99796.31
2023-04-15T15:06:06.956Z,99790.44
2023-04-15T15:09:09.772Z,99803.59
2023-04-15T15:12:12.386Z,99802.44
2023-04-15T15:15:28.256Z,99802.78
2023-04-15T15:18:31.985Z,99810.28
2023-04-15T15:21:35.095Z,99817.25
2023-04-15T15:24:37.692Z,99823.06
2023-04-15T15:27:40.485Z,99820.69
2023-04-15T15:30:43.108Z,99825.94
2023-04-15T15:33:45.874Z,99825.63
2023-04-15T15:36:48.692Z,99833.66
2023-04-15T15:39:53.489Z,99838.44
2023-04-15T15:42:56.166Z,99836.81
2023-04-15T15:45:58.897Z,99844.06
2023-04-15T15:49:04.106Z,99846.00
2023-04-15T15:52:07.699Z,99852.22
2023-04-15T15:55:10.435Z,99861.47
2023-04-15T15:58:13.148Z,99862.00
2023-04-15T16:01:16.185Z,99866.47
2023-04-15T16:04:19.464Z,99865.63
2023-04-15T16:07:22.172Z,99874.78
2023-04-15T16:10:24.936Z,99874.91
2023-04-15T16:13:27.953Z,99881.09
2023-04-15T16:16:31.088Z,99886.78
2023-04-15T16:19:33.785Z,99886.56
2023-04-15T16:22:36.550Z,99888.19
2023-04-15T16:25:39.166Z,99887.50
2023-04-15T16:28:42.017Z,99892.19
2023-04-15T16:31:44.768Z,99888.81
2023-04-15T16:34:47.559Z,99884.03
2023-04-15T16:37:50.493Z,99896.28
2023-04-15T16:40:54.431Z,99894.56
2023-04-15T16:43:58.625Z,99892.97
2023-04-15T16:47:03.128Z,99900.38
2023-04-15T16:50:06.453Z,99904.19
2023-04-15T16:53:09.136Z,99906.75
2023-04-15T16:56:11.819Z,99906.63
2023-04-15T16:59:14.456Z,99919.56
2023-04-15T17:02:18.319Z,99922.72
2023-04-15T17:05:21.184Z,99930.63
2023-04-15T17:08:23.948Z,99928.72
2023-04-15T17:11:28.178Z,99938.47
2023-04-15T17:14:32.252Z,99933.84
2023-04-15T17:17:34.862Z,99939.25
2023-04-15T17:20:39.521Z,99941.66
2023-04-15T17:23:43.267Z,99929.78
2023-04-15T17:26:47.220Z,99950.88
2023-04-15T17:29:49.835Z,99961.34
2023-04-15T17:32:53.193Z,99962.41
2023-04-15T17:35:57.907Z,99965.38
2023-04-15T17:39:00.613Z,99965.56
2023-04-15T17:42:03.313Z,99971.59
2023-04-15T17:45:06.541Z,99970.81
2023-04-15T17:48:09.299Z,99976.50
2023-04-15T17:51:12.946Z,99981.13
2023-04-15T17:54:16.067Z,99984.97
2023-04-15T17:57:18.601Z,99989.50
2023-04-15T18:00:22.108Z,99994.72
2023-04-15T18:03:26.309Z,99997.47
2023-04-15T18:06:29.239Z,100002.28
2023-04-15T18:09:32.646Z,100002.34
2023-04-15T18:12:35.426Z,100005.56
2023-04-15T18:15:38.219Z,100001.97
2023-04-15T18:18:40.922Z,100008.31
2023-04-15T18:21:43.883Z,100005.44
2023-04-15T18:24:46.519Z,100015.84
2023-04-15T18:27:49.578Z,100023.19
2023-04-15T18:30:52.124Z,100031.03
2023-04-15T18:33:54.871Z,100037.84
2023-04-15T18:36:58.761Z,100047.41
2023-04-15T18:40:02.740Z,100047.50
2023-04-15T18:43:06.370Z,100055.16
2023-04-15T18:46:11.903Z,100059.94
2023-04-15T18:49:15.926Z,100066.63
2023-04-15T18:52:18.689Z,100072.84
2023-04-15T18:55:21.352Z,100077.09
2023-04-15T18:58:24.114Z,100082.25
2023-04-15T19:01:27.708Z,100078.22
2023-04-15T19:04:31.357Z,100085.59
2023-04-15T19:07:34.976Z,100085.13
2023-04-15T19:10:38.132Z,100091.72
2023-04-15T19:13:40.808Z,100097.66
2023-04-15T19:16:45.176Z,100104.06
2023-04-15T19:19:47.923Z,100106.78
2023-04-15T19:22:50.833Z,100113.91
2023-04-15T19:25:53.616Z,100112.44
2023-04-15T19:28:58.969Z,100113.34
2023-04-15T19:32:02.165Z,100114.84
2023-04-15T19:35:05.509Z,100128.13
2023-04-15T19:38:08.718Z,100124.38
2023-04-15T19:41:12.253Z,100133.13
2023-04-15T19:44:15.139Z,100134.94
2023-04-15T19:47:19.390Z,100137.06
2023-04-15T19:50:26.285Z,100134.44
2023-04-15T19:53:29.400Z,100141.44
2023-04-15T19:56:34.405Z,100149.28
2023-04-15T19:59:38.249Z,100153.72
2023-04-15T20:02:41.982Z,100152.19
2023-04-15T20:05:44.881Z,100153.50
2023-04-15T20:08:47.448Z,100162.97
2023-04-15T20:12:46.851Z,100163.94
2023-04-15T20:15:13.474Z,100167.34
2023-04-15T20:18:16.917Z,100168.97
2023-04-15T20:21:19.498Z,100167.50
2023-04-15T20:24:24.267Z,100168.72
2023-04-15T20:27:27.786Z,100159.13
2023-04-15T20:30:30.460Z,100166.81
2023-04-15T20:33:33.175Z,100169.50
2023-04-15T20:36:35.728Z,100170.22
2023-04-15T20:39:39.849Z,100172.44
2023-04-15T20:42:43.767Z,100173.03
2023-04-15T20:45:47.386Z,100181.00
2023-04-15T20:48:50.476Z,100187.84
2023-04-15T20:51:53.111Z,100187.22
2023-04-15T20:54:55.895Z,100185.34
2023-04-15T20:57:59.141Z,100188.28
2023-04-15T21:01:02.191Z,100185.56
2023-04-15T21:04:05.023Z,100192.38
2023-04-15T21:07:07.811Z,100199.31
2023-04-15T21:10:10.715Z,100202.28
2023-04-15T21:13:17.688Z,100199.00
2023-04-15T21:16:22.317Z,100208.22
2023-04-15T21:19:24.994Z,100212.94
2023-04-15T21:22:27.822Z,100210.50
2023-04-15T21:25:30.348Z,100217.88
2023-04-15T21:28:33.303Z,100216.22
2023-04-15T21:31:36.895Z,100223.22
2023-04-15T21:34:39.495Z,100222.34
2023-04-15T21:37:42.161Z,100230.25
2023-04-15T21:40:44.721Z,100235.88
2023-04-15T21:43:47.801Z,100232.22
2023-04-15T21:46:51.188Z,100237.19
2023-04-15T21:49:54.914Z,100244.13
2023-04-15T21:52:57.624Z,100239.03
2023-04-15T21:56:00.357Z,100238.56
2023-04-15T21:59:03.981Z,100244.34
2023-04-15T22:02:07.478Z,100241.78
2023-04-15T22:05:10.096Z,100249.91
2023-04-15T22:08:12.723Z,100245.59
2023-04-15T22:11:23.062Z,100251.78
2023-04-15T22:14:26.911Z,100245.78
2023-04-15T22:17:29.675Z,100253.22
2023-04-15T22:20:32.313Z,100254.91
2023-04-15T22:23:35.439Z,100261.13
2023-04-15T22:26:39.089Z,100260.59
2023-04-15T22:29:41.751Z,100258.53
2023-04-15T22:32:44.303Z,100263.03
2023-04-15T22:35:47.436Z,100262.06
2023-04-15T22:38:50.306Z,100260.81
2023-04-15T22:41:53.218Z,100260.81
2023-04-15T22:44:56.462Z,100263.97
2023-04-15T22:47:59.132Z,100266.00
2023-04-15T22:51:05.661Z,100272.00
2023-04-15T22:54:09.496Z,100267.03
2023-04-15T22:57:12.997Z,100267.63
2023-04-15T23:00:15.630Z,100272.97
2023-04-15T23:03:19.085Z,100273.03
2023-04-15T23:06:22.041Z,100272.09
2023-04-15T23:09:24.765Z,100267.09
2023-04-15T23:12:28.079Z,100274.47
2023-04-15T23:15:30.924Z,100276.38
2023-04-15T23:18:34.275Z,100272.50
2023-04-15T23:21:36.891Z,100264.91
2023-04-15T23:24:39.679Z,100268.63
2023-04-15T23:27:42.968Z,100268.34
2023-04-15T23:30:45.570Z,100276.44
2023-04-15T23:33:48.550Z,100273.16
2023-04-15T23:36:51.991Z,100279.66
2023-04-15T23:39:55.910Z,100276.03
2023-04-15T23:42:58.493Z,100282.31
2023-04-15T23:46:02.109Z,100281.56
2023-04-15T23:49:04.908Z,100289.63
2023-04-15T23:52:08.062Z,100285.59
2023-04-15T23:55:10.628Z,100284.38
2023-04-15T23:58:14.026Z,100290.88
